sensor_id;sensor_type;location;lat;lon;timestamp;pressure;altitude;pressure_sealevel;temperature;humidity
73952;BME280;62304;47.662;18.324;2022-12-10T00:02:54;98765.59;;;6.68;97.93
73952;BME280;62304;47.662;18.324;2022-12-10T00:06:00;98764.78;;;6.64;98.05
73952;BME280;62304;47.662;18.324;2022-12-10T00:09:06;98780.50;;;6.60;98.12
73952;BME280;62304;47.662;18.324;2022-12-10T00:12:09;98773.75;;;6.54;98.30
73952;BME280;62304;47.662;18.324;2022-12-10T00:15:12;98776.84;;;6.49;98.24
73952;BME280;62304;47.662;18.324;2022-12-10T00:18:15;98772.94;;;6.50;98.36
73952;BME280;62304;47.662;18.324;2022-12-10T00:21:20;98778.38;;;6.43;98.66
73952;BME280;62304;47.662;18.324;2022-12-10T00:24:26;98790.59;;;6.42;98.71
73952;BME280;62304;47.662;18.324;2022-12-10T00:27:30;98798.84;;;6.42;98.71
73952;BME280;62304;47.662;18.324;2022-12-10T00:30:34;98804.37;;;6.46;98.61
73952;BME280;62304;47.662;18.324;2022-12-10T00:33:38;98807.91;;;6.46;98.67
73952;BME280;62304;47.662;18.324;2022-12-10T00:36:44;98800.44;;;6.47;98.69
73952;BME280;62304;47.662;18.324;2022-12-10T00:39:47;98808.72;;;6.50;98.67
73952;BME280;62304;47.662;18.324;2022-12-10T00:42:51;98815.47;;;6.56;98.48
73952;BME280;62304;47.662;18.324;2022-12-10T00:45:54;98825.63;;;6.49;98.50
73952;BME280;62304;47.662;18.324;2022-12-10T00:48:58;98844.00;;;6.38;98.55
73952;BME280;62304;47.662;18.324;2022-12-10T00:52:01;98842.69;;;6.21;98.99
73952;BME280;62304;47.662;18.324;2022-12-10T00:55:05;98851.91;;;6.03;99.53
73952;BME280;62304;47.662;18.324;2022-12-10T00:58:08;98843.88;;;5.87;99.68
73952;BME280;62304;47.662;18.324;2022-12-10T01:01:25;98851.69;;;5.85;99.77
73952;BME280;62304;47.662;18.324;2022-12-10T01:04:28;98850.25;;;5.65;100.00
73952;BME280;62304;47.662;18.324;2022-12-10T01:07:31;98849.31;;;5.54;100.00
73952;BME280;62304;47.662;18.324;2022-12-10T01:10:33;98844.56;;;5.51;100.00
73952;BME280;62304;47.662;18.324;2022-12-10T01:13:38;98850.37;;;5.46;100.00
73952;BME280;62304;47.662;18.324;2022-12-10T01:16:40;98863.34;;;5.46;100.00
73952;BME280;62304;47.662;18.324;2022-12-10T01:19:45;98875.09;;;5.43;100.00
73952;BME280;62304;47.662;18.324;2022-12-10T01:22:48;98874.66;;;5.41;100.00
73952;BME280;62304;47.662;18.324;2022-12-10T01:25:51;98869.22;;;5.44;99.95
73952;BME280;62304;47.662;18.324;2022-12-10T01:28:56;98872.66;;;5.38;99.89
73952;BME280;62304;47.662;18.324;2022-12-10T01:32:00;98879.09;;;5.23;100.00
73952;BME280;62304;47.662;18.324;2022-12-10T01:35:04;98880.44;;;5.32;100.00
73952;BME280;62304;47.662;18.324;2022-12-10T01:38:07;98873.78;;;5.33;100.00
73952;BME280;62304;47.662;18.324;2022-12-10T01:41:21;98876.31;;;5.19;100.00
73952;BME280;62304;47.662;18.324;2022-12-10T01:47:35;98890.91;;;5.23;100.00
73952;BME280;62304;47.662;18.324;2022-12-10T01:50:38;98905.25;;;5.13;100.00
73952;BME280;62304;47.662;18.324;2022-12-10T01:53:42;98904.84;;;5.11;100.00
73952;BME280;62304;47.662;18.324;2022-12-10T01:57:02;98902.16;;;5.15;100.00
73952;BME280;62304;47.662;18.324;2022-12-10T02:00:06;98901.78;;;5.16;100.00
73952;BME280;62304;47.662;18.324;2022-12-10T02:03:40;98901.47;;;5.21;100.00
73952;BME280;62304;47.662;18.324;2022-12-10T02:07:02;98893.25;;;5.21;100.00
73952;BME280;62304;47.662;18.324;2022-12-10T02:17:14;98901.03;;;5.19;100.00
73952;BME280;62304;47.662;18.324;2022-12-10T02:20:25;98900.62;;;5.17;100.00
73952;BME280;62304;47.662;18.324;2022-12-10T02:23:36;98902.22;;;5.18;100.00
73952;BME280;62304;47.662;18.324;2022-12-10T02:30:12;98896.66;;;5.15;100.00
73952;BME280;62304;47.662;18.324;2022-12-10T02:33:16;98898.28;;;5.19;100.00
73952;BME280;62304;47.662;18.324;2022-12-10T02:36:21;98895.66;;;5.26;100.00
73952;BME280;62304;47.662;18.324;2022-12-10T02:39:33;98909.41;;;5.26;100.00
73952;BME280;62304;47.662;18.324;2022-12-10T02:42:41;98909.41;;;5.26;100.00
73952;BME280;62304;47.662;18.324;2022-12-10T02:45:45;98905.81;;;5.22;100.00
73952;BME280;62304;47.662;18.324;2022-12-10T02:48:50;98905.81;;;5.22;100.00
73952;BME280;62304;47.662;18.324;2022-12-10T02:51:53;98910.56;;;5.25;100.00
73952;BME280;62304;47.662;18.324;2022-12-10T02:54:56;98919.97;;;5.24;100.00
73952;BME280;62304;47.662;18.324;2022-12-10T03:08:17;98905.25;;;5.13;100.00
73952;BME280;62304;47.662;18.324;2022-12-10T03:11:22;98901.25;;;5.07;100.00
73952;BME280;62304;47.662;18.324;2022-12-10T03:14:29;98911.37;;;5.03;100.00
73952;BME280;62304;47.662;18.324;2022-12-10T03:17:33;98920.38;;;5.00;100.00
73952;BME280;62304;47.662;18.324;2022-12-10T03:20:42;98925.56;;;5.05;100.00
73952;BME280;62304;47.662;18.324;2022-12-10T03:23:48;98919.97;;;4.98;100.00
73952;BME280;62304;47.662;18.324;2022-12-10T03:26:52;98914.81;;;4.97;100.00
73952;BME280;62304;47.662;18.324;2022-12-10T03:29:56;98912.09;;;4.97;100.00
73952;BME280;62304;47.662;18.324;2022-12-10T03:33:01;98910.91;;;4.98;100.00
73952;BME280;62304;47.662;18.324;2022-12-10T03:36:08;98911.22;;;4.93;100.00
73952;BME280;62304;47.662;18.324;2022-12-10T03:39:12;98914.94;;;4.81;100.00
73952;BME280;62304;47.662;18.324;2022-12-10T03:42:16;98915.38;;;4.83;100.00
73952;BME280;62304;47.662;18.324;2022-12-10T03:45:19;98903.59;;;4.83;100.00
73952;BME280;62304;47.662;18.324;2022-12-10T03:48:22;98909.84;;;4.80;100.00
73952;BME280;62304;47.662;18.324;2022-12-10T03:51:25;98916.16;;;4.84;100.00
73952;BME280;62304;47.662;18.324;2022-12-10T03:54:27;98918.03;;;4.76;100.00
73952;BME280;62304;47.662;18.324;2022-12-10T03:57:31;98922.66;;;4.72;100.00
73952;BME280;62304;47.662;18.324;2022-12-10T04:00:33;98930.44;;;4.70;100.00
73952;BME280;62304;47.662;18.324;2022-12-10T04:03:38;98947.25;;;4.65;100.00
73952;BME280;62304;47.662;18.324;2022-12-10T04:06:42;98953.16;;;4.67;100.00
73952;BME280;62304;47.662;18.324;2022-12-10T04:09:45;98960.59;;;4.67;100.00
73952;BME280;62304;47.662;18.324;2022-12-10T04:12:48;98964.66;;;4.54;100.00
73952;BME280;62304;47.662;18.324;2022-12-10T04:16:11;98963.16;;;4.56;100.00
73952;BME280;62304;47.662;18.324;2022-12-10T04:19:29;98963.38;;;4.48;99.87
73952;BME280;62304;47.662;18.324;2022-12-10T04:22:33;98967.28;;;4.47;99.81
73952;BME280;62304;47.662;18.324;2022-12-10T04:25:54;98962.63;;;4.51;99.71
73952;BME280;62304;47.662;18.324;2022-12-10T04:29:16;98963.09;;;4.53;99.59
73952;BME280;62304;47.662;18.324;2022-12-10T04:32:19;98969.66;;;4.48;99.50
73952;BME280;62304;47.662;18.324;2022-12-10T04:35:23;98961.12;;;4.53;99.18
73952;BME280;62304;47.662;18.324;2022-12-10T04:38:27;98966.78;;;4.41;99.21
73952;BME280;62304;47.662;18.324;2022-12-10T04:41:30;98974.34;;;4.48;98.87
73952;BME280;62304;47.662;18.324;2022-12-10T04:44:33;98972.37;;;4.48;98.85
73952;BME280;62304;47.662;18.324;2022-12-10T04:47:36;98978.19;;;4.43;98.82
73952;BME280;62304;47.662;18.324;2022-12-10T04:50:39;98976.59;;;4.42;98.63
73952;BME280;62304;47.662;18.324;2022-12-10T04:53:42;98981.31;;;4.42;98.76
73952;BME280;62304;47.662;18.324;2022-12-10T04:56:47;98974.28;;;4.44;98.33
73952;BME280;62304;47.662;18.324;2022-12-10T04:59:51;98981.94;;;4.35;98.55
73952;BME280;62304;47.662;18.324;2022-12-10T05:02:54;98971.47;;;4.22;98.45
73952;BME280;62304;47.662;18.324;2022-12-10T05:06:05;98973.94;;;4.27;98.38
73952;BME280;62304;47.662;18.324;2022-12-10T05:09:10;98981.97;;;4.16;98.59
73952;BME280;62304;47.662;18.324;2022-12-10T05:12:13;98981.59;;;4.18;98.41
73952;BME280;62304;47.662;18.324;2022-12-10T05:15:16;98986.28;;;4.17;98.27
73952;BME280;62304;47.662;18.324;2022-12-10T05:18:19;98990.19;;;4.16;98.24
73952;BME280;62304;47.662;18.324;2022-12-10T05:21:23;98980.72;;;4.14;98.19
73952;BME280;62304;47.662;18.324;2022-12-10T05:24:26;98986.50;;;4.09;98.14
73952;BME280;62304;47.662;18.324;2022-12-10T05:27:33;98995.78;;;4.04;98.09
73952;BME280;62304;47.662;18.324;2022-12-10T05:30:36;98988.91;;;4.10;98.03
73952;BME280;62304;47.662;18.324;2022-12-10T05:33:39;98996.75;;;4.12;98.00
73952;BME280;62304;47.662;18.324;2022-12-10T05:36:42;99001.72;;;4.06;97.81
73952;BME280;62304;47.662;18.324;2022-12-10T05:39:45;99008.50;;;3.93;98.09
73952;BME280;62304;47.662;18.324;2022-12-10T05:42:50;99016.63;;;3.90;98.07
73952;BME280;62304;47.662;18.324;2022-12-10T05:45:52;99011.81;;;3.83;98.18
73952;BME280;62304;47.662;18.324;2022-12-10T05:48:56;99013.13;;;3.89;98.14
73952;BME280;62304;47.662;18.324;2022-12-10T05:52:00;99014.69;;;3.90;97.83
73952;BME280;62304;47.662;18.324;2022-12-10T05:55:05;99013.97;;;3.93;97.52
73952;BME280;62304;47.662;18.324;2022-12-10T05:58:10;99021.91;;;3.98;97.25
73952;BME280;62304;47.662;18.324;2022-12-10T06:01:16;99033.47;;;3.88;96.94
73952;BME280;62304;47.662;18.324;2022-12-10T06:04:19;99023.91;;;3.82;96.65
73952;BME280;62304;47.662;18.324;2022-12-10T06:07:22;99033.28;;;3.81;96.63
73952;BME280;62304;47.662;18.324;2022-12-10T06:10:25;99037.47;;;3.75;96.82
73952;BME280;62304;47.662;18.324;2022-12-10T06:13:27;99035.47;;;3.72;96.62
73952;BME280;62304;47.662;18.324;2022-12-10T06:16:32;99048.72;;;3.70;96.75
73952;BME280;62304;47.662;18.324;2022-12-10T06:19:35;99046.97;;;3.62;96.73
73952;BME280;62304;47.662;18.324;2022-12-10T06:22:40;99060.75;;;3.66;96.76
73952;BME280;62304;47.662;18.324;2022-12-10T06:25:42;99063.34;;;3.59;96.82
73952;BME280;62304;47.662;18.324;2022-12-10T06:28:47;99065.44;;;3.50;96.85
73952;BME280;62304;47.662;18.324;2022-12-10T06:31:50;99067.66;;;3.60;96.90
73952;BME280;62304;47.662;18.324;2022-12-10T06:34:53;99075.88;;;3.60;96.59
73952;BME280;62304;47.662;18.324;2022-12-10T06:37:56;99085.34;;;3.47;97.00
73952;BME280;62304;47.662;18.324;2022-12-10T06:40:59;99074.09;;;3.52;96.63
73952;BME280;62304;47.662;18.324;2022-12-10T06:44:02;99067.94;;;3.55;96.51
73952;BME280;62304;47.662;18.324;2022-12-10T06:47:05;99066.06;;;3.59;96.45
73952;BME280;62304;47.662;18.324;2022-12-10T06:50:08;99054.66;;;3.57;96.02
73952;BME280;62304;47.662;18.324;2022-12-10T06:53:11;99066.84;;;3.59;96.15
73952;BME280;62304;47.662;18.324;2022-12-10T06:56:16;99063.06;;;3.48;96.15
73952;BME280;62304;47.662;18.324;2022-12-10T06:59:19;99058.91;;;3.39;96.29
73952;BME280;62304;47.662;18.324;2022-12-10T07:02:22;99062.63;;;3.31;96.66
73952;BME280;62304;47.662;18.324;2022-12-10T07:05:25;99063.41;;;3.31;96.63
73952;BME280;62304;47.662;18.324;2022-12-10T07:08:29;99044.69;;;3.33;96.66
73952;BME280;62304;47.662;18.324;2022-12-10T07:11:33;99044.97;;;3.28;96.83
73952;BME280;62304;47.662;18.324;2022-12-10T07:14:36;99044.75;;;3.21;96.92
73952;BME280;62304;47.662;18.324;2022-12-10T07:17:39;99036.44;;;3.18;96.94
73952;BME280;62304;47.662;18.324;2022-12-10T07:20:42;99014.53;;;3.18;97.07
73952;BME280;62304;47.662;18.324;2022-12-10T07:23:45;99010.22;;;3.17;96.84
73952;BME280;62304;47.662;18.324;2022-12-10T07:26:48;99015.34;;;3.18;96.77
73952;BME280;62304;47.662;18.324;2022-12-10T07:29:51;99019.94;;;3.14;97.04
73952;BME280;62304;47.662;18.324;2022-12-10T07:32:54;99030.47;;;3.12;96.53
73952;BME280;62304;47.662;18.324;2022-12-10T07:35:58;99023.47;;;3.15;96.58
73952;BME280;62304;47.662;18.324;2022-12-10T07:39:01;99023.91;;;3.17;96.71
73952;BME280;62304;47.662;18.324;2022-12-10T07:42:04;99031.31;;;3.16;96.72
73952;BME280;62304;47.662;18.324;2022-12-10T07:45:10;99030.53;;;3.16;96.57
73952;BME280;62304;47.662;18.324;2022-12-10T07:48:14;99032.37;;;3.27;95.95
73952;BME280;62304;47.662;18.324;2022-12-10T07:51:19;99034.69;;;3.41;95.86
73952;BME280;62304;47.662;18.324;2022-12-10T07:54:23;99029.38;;;3.48;95.34
73952;BME280;62304;47.662;18.324;2022-12-10T07:57:28;99013.72;;;3.48;95.26
73952;BME280;62304;47.662;18.324;2022-12-10T08:00:32;99010.13;;;3.44;94.83
73952;BME280;62304;47.662;18.324;2022-12-10T08:03:36;99015.50;;;3.56;95.13
73952;BME280;62304;47.662;18.324;2022-12-10T08:06:39;99005.50;;;3.64;94.72
73952;BME280;62304;47.662;18.324;2022-12-10T08:09:42;98998.19;;;3.71;94.93
73952;BME280;62304;47.662;18.324;2022-12-10T08:12:45;98993.53;;;3.72;94.55
73952;BME280;62304;47.662;18.324;2022-12-10T08:15:49;98992.38;;;3.73;94.92
73952;BME280;62304;47.662;18.324;2022-12-10T08:18:52;98994.41;;;3.60;95.24
73952;BME280;62304;47.662;18.324;2022-12-10T08:21:55;98993.84;;;3.51;94.86
73952;BME280;62304;47.662;18.324;2022-12-10T08:24:58;99007.69;;;3.58;95.24
73952;BME280;62304;47.662;18.324;2022-12-10T08:28:01;99001.50;;;3.61;95.33
73952;BME280;62304;47.662;18.324;2022-12-10T08:31:07;98990.38;;;3.54;95.28
73952;BME280;62304;47.662;18.324;2022-12-10T08:34:17;98984.88;;;3.54;95.26
73952;BME280;62304;47.662;18.324;2022-12-10T08:37:20;98990.94;;;3.44;95.12
73952;BME280;62304;47.662;18.324;2022-12-10T08:40:23;99005.22;;;3.53;94.84
73952;BME280;62304;47.662;18.324;2022-12-10T08:43:26;99015.56;;;3.60;94.67
73952;BME280;62304;47.662;18.324;2022-12-10T08:46:29;99010.59;;;3.65;94.25
73952;BME280;62304;47.662;18.324;2022-12-10T08:49:33;99012.47;;;3.61;93.86
73952;BME280;62304;47.662;18.324;2022-12-10T08:52:37;99033.06;;;3.71;94.33
73952;BME280;62304;47.662;18.324;2022-12-10T08:55:39;99032.44;;;3.77;94.02
73952;BME280;62304;47.662;18.324;2022-12-10T08:58:50;99032.44;;;3.77;93.84
73952;BME280;62304;47.662;18.324;2022-12-10T09:01:53;99046.31;;;3.84;93.90
73952;BME280;62304;47.662;18.324;2022-12-10T09:04:58;99061.53;;;3.82;93.66
73952;BME280;62304;47.662;18.324;2022-12-10T09:08:01;99057.47;;;3.76;93.85
73952;BME280;62304;47.662;18.324;2022-12-10T09:11:09;99075.69;;;3.68;94.28
73952;BME280;62304;47.662;18.324;2022-12-10T09:14:12;99081.19;;;3.68;94.22
73952;BME280;62304;47.662;18.324;2022-12-10T09:17:15;99079.25;;;3.69;94.45
73952;BME280;62304;47.662;18.324;2022-12-10T09:20:18;99061.25;;;3.71;94.63
73952;BME280;62304;47.662;18.324;2022-12-10T09:23:22;99036.97;;;3.70;94.32
73952;BME280;62304;47.662;18.324;2022-12-10T09:26:26;99036.69;;;3.75;94.38
73952;BME280;62304;47.662;18.324;2022-12-10T09:29:29;99040.53;;;3.89;94.15
73952;BME280;62304;47.662;18.324;2022-12-10T09:32:32;99028.53;;;3.78;94.20
73952;BME280;62304;47.662;18.324;2022-12-10T09:35:39;99026.50;;;3.75;94.13
73952;BME280;62304;47.662;18.324;2022-12-10T09:38:44;99019.84;;;3.76;94.04
73952;BME280;62304;47.662;18.324;2022-12-10T09:52:43;99013.94;;;3.74;94.08
73952;BME280;62304;47.662;18.324;2022-12-10T09:55:48;99013.59;;;3.76;94.02
73952;BME280;62304;47.662;18.324;2022-12-10T09:58:53;99010.50;;;3.77;93.86
73952;BME280;62304;47.662;18.324;2022-12-10T10:02:22;99019.19;;;3.64;93.91
73952;BME280;62304;47.662;18.324;2022-12-10T10:05:30;99009.53;;;3.70;94.13
73952;BME280;62304;47.662;18.324;2022-12-10T10:08:36;99002.37;;;3.65;94.13
73952;BME280;62304;47.662;18.324;2022-12-10T10:11:42;98998.66;;;3.73;94.10
73952;BME280;62304;47.662;18.324;2022-12-10T10:14:46;99001.94;;;3.63;93.88
73952;BME280;62304;47.662;18.324;2022-12-10T10:17:53;99003.19;;;3.66;94.04
73952;BME280;62304;47.662;18.324;2022-12-10T10:20:59;98991.09;;;3.51;93.92
73952;BME280;62304;47.662;18.324;2022-12-10T10:24:04;99000.91;;;3.52;94.30
73952;BME280;62304;47.662;18.324;2022-12-10T10:30:22;98992.41;;;3.57;94.15
73952;BME280;62304;47.662;18.324;2022-12-10T10:33:26;98995.84;;;3.54;94.02
73952;BME280;62304;47.662;18.324;2022-12-10T10:36:32;98995.66;;;3.63;93.97
73952;BME280;62304;47.662;18.324;2022-12-10T10:39:35;98992.12;;;3.62;94.01
73952;BME280;62304;47.662;18.324;2022-12-10T10:42:45;98990.06;;;3.75;94.30
73952;BME280;62304;47.662;18.324;2022-12-10T10:46:02;98982.97;;;3.74;93.56
73952;BME280;62304;47.662;18.324;2022-12-10T10:49:22;98967.34;;;3.74;93.42
73952;BME280;62304;47.662;18.324;2022-12-10T10:52:35;98969.72;;;3.76;93.52
73952;BME280;62304;47.662;18.324;2022-12-10T10:55:40;98969.12;;;3.67;93.59
73952;BME280;62304;47.662;18.324;2022-12-10T10:58:58;98965.16;;;3.64;93.48
73952;BME280;62304;47.662;18.324;2022-12-10T11:02:34;98977.53;;;3.58;93.69
73952;BME280;62304;47.662;18.324;2022-12-10T11:05:37;98989.81;;;3.64;93.64
73952;BME280;62304;47.662;18.324;2022-12-10T11:08:42;98978.84;;;3.64;93.55
73952;BME280;62304;47.662;18.324;2022-12-10T11:11:51;98983.56;;;3.64;93.65
73952;BME280;62304;47.662;18.324;2022-12-10T11:14:54;98987.16;;;3.68;93.61
73952;BME280;62304;47.662;18.324;2022-12-10T11:17:58;98975.75;;;3.66;93.59
73952;BME280;62304;47.662;18.324;2022-12-10T11:24:18;98953.28;;;3.76;93.11
73952;BME280;62304;47.662;18.324;2022-12-10T11:27:51;98949.16;;;3.85;93.07
73952;BME280;62304;47.662;18.324;2022-12-10T11:38:28;98938.47;;;3.80;93.04
73952;BME280;62304;47.662;18.324;2022-12-10T11:41:46;98932.91;;;3.77;93.30
73952;BME280;62304;47.662;18.324;2022-12-10T11:49:00;98933.13;;;3.87;93.45
73952;BME280;62304;47.662;18.324;2022-12-10T11:55:39;98920.44;;;3.79;93.19
73952;BME280;62304;47.662;18.324;2022-12-10T12:06:24;98915.91;;;3.87;92.62
73952;BME280;62304;47.662;18.324;2022-12-10T12:13:17;98904.00;;;3.79;92.97
73952;BME280;62304;47.662;18.324;2022-12-10T12:16:40;98904.91;;;3.68;92.81
73952;BME280;62304;47.662;18.324;2022-12-10T12:20:03;98890.13;;;3.72;93.04
73952;BME280;62304;47.662;18.324;2022-12-10T12:23:18;98884.28;;;3.74;92.90
73952;BME280;62304;47.662;18.324;2022-12-10T12:26:36;98876.91;;;3.78;93.09
73952;BME280;62304;47.662;18.324;2022-12-10T12:29:44;98886.03;;;3.82;92.92
73952;BME280;62304;47.662;18.324;2022-12-10T12:32:51;98882.47;;;3.81;92.86
73952;BME280;62304;47.662;18.324;2022-12-10T12:36:04;98886.03;;;3.82;93.00
73952;BME280;62304;47.662;18.324;2022-12-10T12:39:23;98895.34;;;3.77;93.19
73952;BME280;62304;47.662;18.324;2022-12-10T12:42:30;98889.13;;;3.80;93.29
73952;BME280;62304;47.662;18.324;2022-12-10T12:45:40;98890.28;;;3.79;93.51
73952;BME280;62304;47.662;18.324;2022-12-10T12:55:32;98884.50;;;3.84;93.37
73952;BME280;62304;47.662;18.324;2022-12-10T13:05:29;98887.53;;;3.79;93.61
73952;BME280;62304;47.662;18.324;2022-12-10T13:08:41;98885.09;;;3.74;94.52
73952;BME280;62304;47.662;18.324;2022-12-10T13:18:35;98881.69;;;3.81;94.21
73952;BME280;62304;47.662;18.324;2022-12-10T13:25:06;98877.44;;;3.83;94.65
73952;BME280;62304;47.662;18.324;2022-12-10T13:31:41;98885.22;;;3.81;95.49
73952;BME280;62304;47.662;18.324;2022-12-10T13:38:21;98896.47;;;3.76;95.26
73952;BME280;62304;47.662;18.324;2022-12-10T13:41:25;98891.09;;;3.80;95.04
73952;BME280;62304;47.662;18.324;2022-12-10T13:48:31;98899.94;;;3.73;95.33
73952;BME280;62304;47.662;18.324;2022-12-10T14:01:52;98900.50;;;3.63;95.66
73952;BME280;62304;47.662;18.324;2022-12-10T14:08:29;98896.47;;;3.57;96.09
73952;BME280;62304;47.662;18.324;2022-12-10T14:11:45;98897.28;;;3.58;95.94
73952;BME280;62304;47.662;18.324;2022-12-10T14:14:54;98899.50;;;3.52;96.22
73952;BME280;62304;47.662;18.324;2022-12-10T14:18:12;98894.00;;;3.52;96.34
73952;BME280;62304;47.662;18.324;2022-12-10T14:21:16;98892.44;;;3.51;96.56
73952;BME280;62304;47.662;18.324;2022-12-10T14:24:33;98890.09;;;3.53;96.45
73952;BME280;62304;47.662;18.324;2022-12-10T14:27:37;98892.84;;;3.53;96.47
73952;BME280;62304;47.662;18.324;2022-12-10T14:30:48;98890.03;;;3.50;96.65
73952;BME280;62304;47.662;18.324;2022-12-10T14:33:52;98896.69;;;3.49;96.63
73952;BME280;62304;47.662;18.324;2022-12-10T14:37:01;98887.66;;;3.48;96.63
73952;BME280;62304;47.662;18.324;2022-12-10T14:40:06;98893.50;;;3.47;96.81
73952;BME280;62304;47.662;18.324;2022-12-10T14:43:39;98888.37;;;3.45;96.96
73952;BME280;62304;47.662;18.324;2022-12-10T14:46:43;98884.41;;;3.43;97.04
73952;BME280;62304;47.662;18.324;2022-12-10T14:49:52;98887.22;;;3.46;97.23
73952;BME280;62304;47.662;18.324;2022-12-10T14:52:56;98882.97;;;3.49;97.10
73952;BME280;62304;47.662;18.324;2022-12-10T14:56:02;98893.19;;;3.52;97.36
73952;BME280;62304;47.662;18.324;2022-12-10T14:59:35;98884.28;;;3.55;97.13
73952;BME280;62304;47.662;18.324;2022-12-10T15:02:44;98884.78;;;3.60;96.99
73952;BME280;62304;47.662;18.324;2022-12-10T15:05:57;98883.34;;;3.66;96.67
73952;BME280;62304;47.662;18.324;2022-12-10T15:09:02;98882.56;;;3.66;96.63
73952;BME280;62304;47.662;18.324;2022-12-10T15:12:21;98877.88;;;3.66;96.38
73952;BME280;62304;47.662;18.324;2022-12-10T15:15:39;98886.94;;;3.70;96.49
73952;BME280;62304;47.662;18.324;2022-12-10T15:18:44;98881.63;;;3.77;96.20
73952;BME280;62304;47.662;18.324;2022-12-10T15:21:52;98880.47;;;3.78;96.01
73952;BME280;62304;47.662;18.324;2022-12-10T15:25:40;98879.59;;;3.74;96.21
73952;BME280;62304;47.662;18.324;2022-12-10T15:28:48;98878.22;;;3.84;95.89
73952;BME280;62304;47.662;18.324;2022-12-10T15:32:22;98875.41;;;3.80;95.84
73952;BME280;62304;47.662;18.324;2022-12-10T15:35:29;98872.03;;;3.87;95.71
73952;BME280;62304;47.662;18.324;2022-12-10T15:38:32;98868.13;;;3.88;95.54
73952;BME280;62304;47.662;18.324;2022-12-10T15:41:44;98866.75;;;3.97;95.50
73952;BME280;62304;47.662;18.324;2022-12-10T15:44:47;98863.06;;;3.90;95.27
73952;BME280;62304;47.662;18.324;2022-12-10T15:47:57;98862.53;;;4.03;95.25
73952;BME280;62304;47.662;18.324;2022-12-10T15:51:01;98853.53;;;4.03;94.93
73952;BME280;62304;47.662;18.324;2022-12-10T15:54:21;98849.63;;;4.04;94.97
73952;BME280;62304;47.662;18.324;2022-12-10T15:57:30;98859.97;;;4.10;94.74
73952;BME280;62304;47.662;18.324;2022-12-10T16:00:34;98843.78;;;4.05;95.08
73952;BME280;62304;47.662;18.324;2022-12-10T16:03:38;98845.13;;;4.15;94.51
73952;BME280;62304;47.662;18.324;2022-12-10T16:06:43;98837.13;;;4.06;94.70
73952;BME280;62304;47.662;18.324;2022-12-10T16:09:48;98839.59;;;4.11;94.88
73952;BME280;62304;47.662;18.324;2022-12-10T16:13:01;98836.69;;;4.04;94.89
73952;BME280;62304;47.662;18.324;2022-12-10T16:16:08;98835.03;;;4.19;94.57
73952;BME280;62304;47.662;18.324;2022-12-10T16:19:13;98827.63;;;4.23;94.77
73952;BME280;62304;47.662;18.324;2022-12-10T16:22:18;98819.72;;;4.40;94.32
73952;BME280;62304;47.662;18.324;2022-12-10T16:25:24;98811.97;;;4.46;94.09
73952;BME280;62304;47.662;18.324;2022-12-10T16:28:31;98807.31;;;4.50;93.73
73952;BME280;62304;47.662;18.324;2022-12-10T16:31:39;98804.72;;;4.57;93.32
73952;BME280;62304;47.662;18.324;2022-12-10T16:34:44;98810.13;;;4.53;93.49
73952;BME280;62304;47.662;18.324;2022-12-10T16:37:49;98807.06;;;4.58;93.11
73952;BME280;62304;47.662;18.324;2022-12-10T16:40:58;98804.09;;;4.44;93.64
73952;BME280;62304;47.662;18.324;2022-12-10T16:44:05;98794.66;;;4.42;93.62
73952;BME280;62304;47.662;18.324;2022-12-10T16:47:11;98796.94;;;4.40;93.36
73952;BME280;62304;47.662;18.324;2022-12-10T16:50:20;98796.19;;;4.39;93.45
73952;BME280;62304;47.662;18.324;2022-12-10T16:53:27;98785.88;;;4.33;93.71
73952;BME280;62304;47.662;18.324;2022-12-10T16:56:32;98785.19;;;4.17;93.78
73952;BME280;62304;47.662;18.324;2022-12-10T16:59:38;98787.47;;;4.11;94.23
73952;BME280;62304;47.662;18.324;2022-12-10T17:02:43;98785.38;;;4.05;94.36
73952;BME280;62304;47.662;18.324;2022-12-10T17:05:51;98789.63;;;4.02;94.46
73952;BME280;62304;47.662;18.324;2022-12-10T17:08:55;98777.16;;;4.05;94.47
73952;BME280;62304;47.662;18.324;2022-12-10T17:11:59;98779.19;;;4.08;94.37
73952;BME280;62304;47.662;18.324;2022-12-10T17:15:02;98781.22;;;4.14;94.34
73952;BME280;62304;47.662;18.324;2022-12-10T17:18:11;98772.72;;;3.97;94.69
73952;BME280;62304;47.662;18.324;2022-12-10T17:21:16;98769.66;;;4.02;94.80
73952;BME280;62304;47.662;18.324;2022-12-10T17:24:19;98773.59;;;4.04;94.70
73952;BME280;62304;47.662;18.324;2022-12-10T17:27:22;98770.75;;;3.97;94.76
73952;BME280;62304;47.662;18.324;2022-12-10T17:30:25;98762.88;;;3.96;94.89
73952;BME280;62304;47.662;18.324;2022-12-10T17:33:28;98757.81;;;3.98;94.96
73952;BME280;62304;47.662;18.324;2022-12-10T17:36:32;98760.34;;;4.06;94.81
73952;BME280;62304;47.662;18.324;2022-12-10T17:39:34;98763.94;;;4.10;94.56
73952;BME280;62304;47.662;18.324;2022-12-10T17:42:38;98756.84;;;4.09;94.32
73952;BME280;62304;47.662;18.324;2022-12-10T17:45:41;98763.25;;;4.17;94.65
73952;BME280;62304;47.662;18.324;2022-12-10T17:48:47;98749.41;;;4.10;94.47
73952;BME280;62304;47.662;18.324;2022-12-10T17:51:50;98758.00;;;4.08;94.37
73952;BME280;62304;47.662;18.324;2022-12-10T17:54:54;98761.09;;;4.07;94.63
73952;BME280;62304;47.662;18.324;2022-12-10T17:57:57;98764.31;;;3.90;94.87
73952;BME280;62304;47.662;18.324;2022-12-10T18:01:03;98755.81;;;3.95;94.81
73952;BME280;62304;47.662;18.324;2022-12-10T18:04:06;98753.00;;;3.91;95.08
73952;BME280;62304;47.662;18.324;2022-12-10T18:07:13;98750.75;;;3.97;94.97
73952;BME280;62304;47.662;18.324;2022-12-10T18:10:20;98738.69;;;4.01;94.87
73952;BME280;62304;47.662;18.324;2022-12-10T18:13:23;98740.88;;;3.92;95.00
73952;BME280;62304;47.662;18.324;2022-12-10T18:16:33;98738.81;;;3.86;95.15
73952;BME280;62304;47.662;18.324;2022-12-10T18:19:37;98725.16;;;3.89;95.10
73952;BME280;62304;47.662;18.324;2022-12-10T18:22:46;98716.62;;;3.94;94.92